Time;durP1;ratioP1;P1;durP2;ratioP2;P2;SDS_P1;SDS_P2;PMS_P1;PMS_P2;Temp;Humidity;BMP_temperature;BMP_pressure;BME280_temperature;BME280_humidity;BME280_pressure;Samples;Min_cycle;Max_cycle;Signal;HPM_P1;HPM_P2
2021/10/20 00:09:54;;;;;;;8.43;4.60;;;14.40;99.90;;;;;;6741333;88;20202;-76
2021/10/20 00:19:59;;;;;;;7.12;4.82;;;14.20;99.90;;;;;;6742672;88;20298;-76
2021/10/20 00:29:59;;;;;;;8.52;4.55;;;14.20;99.90;;;;;;6741279;88;20267;-77
2021/10/20 00:40:00;;;;;;;7.47;4.53;;;14.10;99.90;;;;;;6742110;88;20206;-77
2021/10/20 00:50:01;;;;;;;12.25;4.45;;;14.10;99.90;;;;;;6740892;88;20173;-77
2021/10/20 01:00:06;;;;;;;8.63;4.43;;;14.00;99.90;;;;;;6739681;88;20708;-77
2021/10/20 01:10:09;;;;;;;5.80;4.22;;;14.00;99.90;;;;;;6740873;88;20197;-78
2021/10/20 01:20:10;;;;;;;8.27;4.30;;;14.10;99.90;;;;;;6740563;88;20207;-78
2021/10/20 01:30:10;;;;;;;5.72;4.07;;;13.90;99.90;;;;;;6741480;88;20244;-77
2021/10/20 01:40:11;;;;;;;7.55;4.53;;;13.60;99.90;;;;;;6741595;88;21140;-78
2021/10/20 01:50:14;;;;;;;10.13;4.37;;;13.50;99.90;;;;;;6739048;88;20656;-77
2021/10/20 02:00:15;;;;;;;7.30;4.28;;;13.60;99.90;;;;;;6737495;88;20209;-77
2021/10/20 02:10:16;;;;;;;5.85;3.85;;;13.50;99.90;;;;;;6735118;88;20263;-78
2021/10/20 02:20:16;;;;;;;6.40;3.83;;;13.80;99.90;;;;;;6741756;87;20271;-78
2021/10/20 02:30:18;;;;;;;7.75;4.10;;;13.40;99.90;;;;;;6734814;88;20683;-77
2021/10/20 02:40:18;;;;;;;7.35;3.92;;;13.30;99.90;;;;;;6741371;88;20215;-78
2021/10/20 02:50:20;;;;;;;10.02;3.97;;;13.60;99.90;;;;;;6742063;88;20681;-78
2021/10/20 03:00:21;;;;;;;5.43;3.40;;;13.70;99.90;;;;;;6740851;88;20295;-78
2021/10/20 03:10:22;;;;;;;5.40;3.10;;;13.90;99.90;;;;;;6739468;88;20213;-76
2021/10/20 03:20:23;;;;;;;4.78;2.45;;;14.60;99.90;;;;;;6742623;88;20263;-78
2021/10/20 03:30:23;;;;;;;4.55;2.50;;;15.50;99.90;;;;;;6741781;88;20185;-76
2021/10/20 03:40:24;;;;;;;7.60;2.80;;;15.90;99.90;;;;;;6736399;88;20205;-78
2021/10/20 03:50:25;;;;;;;5.90;2.80;;;16.10;99.90;;;;;;6741379;88;20529;-78
2021/10/20 04:00:25;;;;;;;5.97;2.75;;;16.10;99.90;;;;;;6737759;88;21028;-77
2021/10/20 04:10:26;;;;;;;6.62;2.58;;;16.00;99.90;;;;;;6741477;88;20203;-78
2021/10/20 04:20:27;;;;;;;4.93;2.62;;;16.20;99.90;;;;;;6741861;88;20189;-77
2021/10/20 04:30:27;;;;;;;4.83;2.83;;;16.10;99.90;;;;;;6742365;88;20637;-78
2021/10/20 04:40:28;;;;;;;6.35;3.35;;;16.20;99.90;;;;;;6741648;88;20202;-77
2021/10/20 04:50:29;;;;;;;5.35;2.70;;;16.10;99.90;;;;;;6739126;88;20724;-77
2021/10/20 05:00:29;;;;;;;5.23;2.53;;;16.00;99.90;;;;;;6737982;88;20235;-77
2021/10/20 05:10:30;;;;;;;4.97;2.62;;;16.00;99.90;;;;;;6737869;88;20596;-78
2021/10/20 05:20:30;;;;;;;4.30;2.77;;;15.90;99.90;;;;;;6740338;88;20830;-77
2021/10/20 05:30:31;;;;;;;5.18;2.92;;;15.90;99.90;;;;;;6732937;88;21224;-77
2021/10/20 05:40:34;;;;;;;4.95;2.72;;;16.10;99.90;;;;;;6736885;88;20283;-78
2021/10/20 05:50:34;;;;;;;4.60;2.85;;;16.10;99.90;;;;;;6738138;88;20207;-78
2021/10/20 06:00:35;;;;;;;5.32;2.70;;;16.00;99.90;;;;;;6732727;88;20193;-77
2021/10/20 06:10:36;;;;;;;6.87;2.95;;;16.10;99.90;;;;;;6742796;88;20244;-78
2021/10/20 06:20:36;;;;;;;3.80;2.35;;;16.10;99.90;;;;;;6745491;88;20188;-76
2021/10/20 06:30:37;;;;;;;4.12;2.95;;;16.10;99.90;;;;;;6750937;88;20279;-77
2021/10/20 06:40:37;;;;;;;4.00;2.58;;;16.10;99.90;;;;;;6743297;88;20708;-77
2021/10/20 06:50:39;;;;;;;6.22;3.10;;;16.20;99.90;;;;;;6732780;88;20201;-77
2021/10/20 07:00:39;;;;;;;4.43;2.65;;;16.20;99.90;;;;;;6731426;88;20298;-76
2021/10/20 07:10:40;;;;;;;5.62;2.92;;;16.10;99.90;;;;;;6736271;88;20183;-76
2021/10/20 07:20:41;;;;;;;3.62;2.17;;;15.90;99.90;;;;;;6739732;88;20331;-76
2021/10/20 07:30:42;;;;;;;4.15;3.00;;;15.90;99.90;;;;;;6733169;88;20230;-75
2021/10/20 07:40:42;;;;;;;7.05;3.15;;;16.00;99.90;;;;;;6730805;88;20205;-75
2021/10/20 07:50:43;;;;;;;5.32;3.15;;;16.10;99.90;;;;;;6728941;88;20899;-75
2021/10/20 08:00:43;;;;;;;6.87;3.33;;;16.20;99.90;;;;;;6730094;88;20351;-75
2021/10/20 08:10:45;;;;;;;4.77;3.00;;;16.30;99.90;;;;;;6729848;88;20535;-76
2021/10/20 08:20:45;;;;;;;3.65;2.28;;;16.30;99.90;;;;;;6731778;88;20630;-76
2021/10/20 08:30:46;;;;;;;3.92;2.72;;;16.30;99.90;;;;;;6730772;88;20335;-75
2021/10/20 08:40:47;;;;;;;6.35;3.10;;;16.40;99.90;;;;;;6726667;88;20185;-76
2021/10/20 08:50:55;;;;;;;6.28;3.35;;;16.40;99.90;;;;;;6724172;88;20229;-75
2021/10/20 09:00:56;;;;;;;6.25;3.60;;;16.40;99.90;;;;;;6730297;88;20177;-75
2021/10/20 09:10:56;;;;;;;5.40;3.40;;;16.40;99.90;;;;;;6729248;88;20253;-75
2021/10/20 09:20:57;;;;;;;6.70;3.22;;;16.50;99.90;;;;;;6729808;88;20335;-74
2021/10/20 09:31:02;;;;;;;4.97;3.50;;;16.60;99.90;;;;;;6730819;88;20221;-75
2021/10/20 09:41:06;;;;;;;6.53;3.70;;;16.60;99.90;;;;;;6728306;88;20233;-75
2021/10/20 09:51:11;;;;;;;5.87;3.60;;;16.80;99.90;;;;;;6723513;88;21016;-76
2021/10/20 10:01:13;;;;;;;7.53;4.40;;;17.10;99.90;;;;;;6729128;88;20190;-75
2021/10/20 10:11:14;;;;;;;5.87;3.78;;;17.10;99.90;;;;;;6723143;88;20202;-75
2021/10/20 10:21:34;;;;;;;7.10;3.75;;;17.30;99.90;;;;;;6730451;88;20200;-77
2021/10/20 10:31:41;;;;;;;6.70;3.75;;;17.20;99.90;;;;;;6728859;88;20196;-75
2021/10/20 10:41:46;;;;;;;7.93;3.90;;;17.40;99.90;;;;;;6730039;88;20222;-76
2021/10/20 10:52:03;;;;;;;;;;;17.70;99.90;;;;;;6725085;88;20597;-76
2021/10/20 11:02:38;;;;;;;6.53;4.05;;;17.70;99.90;;;;;;6731626;88;20071;-76
2021/10/20 11:12:38;;;;;;;5.12;4.05;;;17.70;99.90;;;;;;6723142;88;20328;-76
2021/10/20 11:22:39;;;;;;;5.95;3.70;;;17.70;99.90;;;;;;6731260;88;20222;-75
2021/10/20 11:32:42;;;;;;;9.05;3.87;;;17.80;99.90;;;;;;6730311;88;20189;-75
2021/10/20 11:42:43;;;;;;;5.97;4.40;;;17.80;99.90;;;;;;6736140;88;20663;-77
2021/10/20 11:52:44;;;;;;;8.20;4.32;;;17.30;99.90;;;;;;6742933;87;20209;-76
2021/10/20 12:02:44;;;;;;;7.62;4.60;;;16.80;99.90;;;;;;6732309;88;20295;-77
2021/10/20 12:12:46;;;;;;;7.28;4.18;;;16.80;99.90;;;;;;6723592;88;20222;-76
2021/10/20 12:22:48;;;;;;;5.85;3.60;;;16.80;99.90;;;;;;6726851;88;20623;-77
2021/10/20 12:32:49;;;;;;;5.85;3.60;;;16.90;99.90;;;;;;6734810;88;20318;-77
2021/10/20 12:42:57;;;;;;;4.25;3.15;;;17.00;99.90;;;;;;6727589;88;20375;-77
2021/10/20 12:52:58;;;;;;;6.30;3.58;;;17.20;99.90;;;;;;6724847;88;20205;-77
2021/10/20 13:02:59;;;;;;;6.07;3.20;;;17.20;99.90;;;;;;6731960;88;20185;-77
2021/10/20 13:13:00;;;;;;;5.30;2.83;;;17.10;99.90;;;;;;6725565;88;20667;-77
2021/10/20 13:23:06;;;;;;;3.78;2.60;;;17.30;99.90;;;;;;6734464;88;20207;-77
2021/10/20 13:33:07;;;;;;;3.33;2.33;;;18.30;99.90;;;;;;6726318;88;20237;-76
2021/10/20 13:43:08;;;;;;;3.47;2.53;;;17.90;99.90;;;;;;6722347;88;20189;-74
2021/10/20 13:53:09;;;;;;;3.97;2.60;;;17.60;99.90;;;;;;6720489;88;20232;-74
2021/10/20 14:03:09;;;;;;;3.03;2.33;;;17.70;99.90;;;;;;6729166;88;20193;-74
2021/10/20 14:13:10;;;;;;;4.28;2.42;;;17.80;99.90;;;;;;6719500;88;20194;-74
2021/10/20 14:23:10;;;;;;;3.57;2.40;;;17.80;99.90;;;;;;6727104;88;20198;-74
2021/10/20 14:33:11;;;;;;;2.90;2.30;;;17.80;99.90;;;;;;6726370;88;20254;-74
2021/10/20 14:43:11;;;;;;;3.37;2.05;;;17.60;99.90;;;;;;6708218;76;20260;-79
2021/10/20 14:53:12;;;;;;;3.75;1.80;;;17.40;99.90;;;;;;6626758;89;20194;-79
2021/10/20 15:03:14;;;;;;;3.72;1.58;;;17.40;99.90;;;;;;6662023;88;20236;-78
2021/10/20 15:13:15;;;;;;;3.20;1.70;;;17.30;99.90;;;;;;6640102;89;20197;-80
2021/10/20 15:23:15;;;;;;;2.72;1.70;;;17.30;99.90;;;;;;6644218;89;20219;-79
2021/10/20 15:33:18;;;;;;;3.85;1.70;;;17.20;99.90;;;;;;6656036;89;20669;-78
2021/10/20 15:43:19;;;;;;;2.53;1.45;;;17.20;99.90;;;;;;6642853;89;20209;-79
2021/10/20 15:53:20;;;;;;;2.40;1.50;;;17.10;99.90;;;;;;6689708;88;20185;-78
2021/10/20 16:03:21;;;;;;;2.83;1.60;;;17.00;99.90;;;;;;6651623;89;20520;-79
2021/10/20 16:13:21;;;;;;;2.45;1.60;;;17.00;99.90;;;;;;6654735;89;20254;-79
2021/10/20 16:23:22;;;;;;;2.60;1.67;;;17.10;99.90;;;;;;6655143;88;20197;-78
2021/10/20 16:33:23;;;;;;;3.40;2.03;;;17.10;99.90;;;;;;6646538;88;20241;-79
2021/10/20 16:43:23;;;;;;;2.50;1.77;;;17.10;99.90;;;;;;6650548;88;20345;-80
2021/10/20 16:53:24;;;;;;;2.90;1.87;;;17.10;99.90;;;;;;6650886;88;20524;-82
2021/10/20 17:03:25;;;;;;;3.50;1.80;;;17.00;99.90;;;;;;6649509;88;21043;-79
2021/10/20 17:13:26;;;;;;;3.50;2.05;;;17.10;99.90;;;;;;6658881;88;20280;-78
2021/10/20 17:23:27;;;;;;;4.50;2.17;;;17.10;99.90;;;;;;6644781;89;20249;-79
2021/10/20 17:33:28;;;;;;;4.28;2.33;;;17.10;99.90;;;;;;6636051;89;20206;-79
2021/10/20 17:43:29;;;;;;;4.95;2.37;;;17.10;99.90;;;;;;6632461;89;20228;-78
2021/10/20 17:53:29;;;;;;;3.37;2.22;;;17.10;99.90;;;;;;6635386;89;20243;-79
2021/10/20 18:03:31;;;;;;;4.60;2.30;;;17.10;99.90;;;;;;6635025;89;20673;-79
2021/10/20 18:13:32;;;;;;;4.10;2.10;;;17.10;99.90;;;;;;6653420;89;20277;-79
2021/10/20 18:23:33;;;;;;;5.03;2.53;;;17.10;99.90;;;;;;6645326;89;20241;-78
2021/10/20 18:33:34;;;;;;;6.22;2.90;;;17.10;99.90;;;;;;6638388;89;20208;-79
2021/10/20 18:43:34;;;;;;;4.78;2.70;;;17.10;99.90;;;;;;6636602;89;20190;-79
2021/10/20 18:53:35;;;;;;;4.95;2.90;;;17.10;99.90;;;;;;6635564;88;20702;-79
2021/10/20 19:03:36;;;;;;;6.78;3.22;;;17.00;99.90;;;;;;6637660;88;20260;-78
2021/10/20 19:13:36;;;;;;;3.80;2.92;;;17.00;99.90;;;;;;6637422;89;20710;-79
2021/10/20 19:23:37;;;;;;;5.10;3.15;;;17.10;99.90;;;;;;6638783;88;20250;-79
2021/10/20 19:33:39;;;;;;;6.20;3.20;;;17.10;99.90;;;;;;6648747;89;20336;-78
2021/10/20 19:43:39;;;;;;;6.15;3.15;;;17.20;99.90;;;;;;6633179;89;20978;-77
2021/10/20 19:53:40;;;;;;;6.55;2.97;;;17.20;99.90;;;;;;6630666;88;20348;-77
2021/10/20 20:03:40;;;;;;;4.03;2.75;;;17.30;99.90;;;;;;6633574;88;20196;-77
2021/10/20 20:13:41;;;;;;;5.20;3.20;;;17.30;99.90;;;;;;6629720;88;20201;-79
2021/10/20 20:23:42;;;;;;;5.72;3.17;;;17.20;99.90;;;;;;6629754;88;20505;-78
2021/10/20 20:33:42;;;;;;;5.70;2.80;;;17.30;99.90;;;;;;6630361;88;20233;-79
2021/10/20 20:44:24;;;;;;;5.83;2.93;;;17.40;99.90;;;;;;6641154;78;22498;-79
2021/10/20 20:54:24;;;;;;;4.20;2.72;;;17.40;99.90;;;;;;6704855;88;20186;-80
2021/10/20 21:04:25;;;;;;;7.55;2.83;;;17.40;99.90;;;;;;6693617;88;20252;-77
2021/10/20 21:14:26;;;;;;;6.10;3.12;;;17.30;99.90;;;;;;6694096;88;20676;-79
2021/10/20 21:24:29;;;;;;;6.05;3.65;;;17.20;99.90;;;;;;6694525;88;20331;-78
2021/10/20 21:34:30;;;;;;;5.93;3.08;;;17.20;99.90;;;;;;6691082;88;20186;-79
2021/10/20 21:44:30;;;;;;;5.78;2.95;;;17.10;99.90;;;;;;6674798;89;20271;-78
2021/10/20 21:54:31;;;;;;;7.03;2.80;;;17.10;99.90;;;;;;6670877;89;20318;-80
2021/10/20 22:04:32;;;;;;;7.75;2.87;;;17.10;99.90;;;;;;6672549;89;20179;-79
2021/10/20 22:14:32;;;;;;;5.32;3.08;;;17.00;99.90;;;;;;6670686;89;21105;-79
2021/10/20 22:24:33;;;;;;;6.75;2.95;;;17.00;99.90;;;;;;6671913;89;20315;-79
2021/10/20 22:34:34;;;;;;;5.30;2.87;;;16.80;99.90;;;;;;6670990;89;20212;-78
2021/10/20 22:44:35;;;;;;;5.60;2.80;;;16.70;99.90;;;;;;6671511;89;20212;-80
2021/10/20 22:54:35;;;;;;;4.80;2.83;;;16.70;99.90;;;;;;6679909;88;20167;-80
2021/10/20 23:04:36;;;;;;;5.00;2.60;;;16.60;99.90;;;;;;6695163;88;20212;-79
2021/10/20 23:14:37;;;;;;;4.55;2.10;;;16.60;99.90;;;;;;6698911;88;20187;-80
2021/10/20 23:24:37;;;;;;;5.28;1.90;;;17.00;99.90;;;;;;6700611;88;20202;-79
2021/10/20 23:34:38;;;;;;;6.50;1.90;;;17.20;99.90;;;;;;6694873;88;20282;-78
2021/10/20 23:44:39;;;;;;;3.35;1.50;;;17.30;99.90;;;;;;6692751;88;20315;-78
2021/10/20 23:54:39;;;;;;;2.40;1.30;;;17.30;99.90;;;;;;6698631;88;20228;-79
